sensor_id;sensor_type;location;lat;lon;timestamp;P1;durP1;ratioP1;P2;durP2;ratioP2
9819;SDS011;4949;48.482;9.206;2023-02-02T00:03:23;5.10;;;2.73;;
9819;SDS011;4949;48.482;9.206;2023-02-02T00:08:27;4.93;;;2.50;;
9819;SDS011;4949;48.482;9.206;2023-02-02T00:13:28;3.63;;;2.50;;
9819;SDS011;4949;48.482;9.206;2023-02-02T00:18:29;7.87;;;2.10;;
9819;SDS011;4949;48.482;9.206;2023-02-02T00:23:32;4.30;;;2.60;;
9819;SDS011;4949;48.482;9.206;2023-02-02T00:28:32;6.63;;;2.47;;
9819;SDS011;4949;48.482;9.206;2023-02-02T00:33:36;4.73;;;2.73;;
9819;SDS011;4949;48.482;9.206;2023-02-02T00:38:39;3.07;;;2.50;;
9819;SDS011;4949;48.482;9.206;2023-02-02T00:43:40;3.60;;;2.47;;
9819;SDS011;4949;48.482;9.206;2023-02-02T00:48:46;4.47;;;2.43;;
9819;SDS011;4949;48.482;9.206;2023-02-02T00:53:47;3.67;;;2.27;;
9819;SDS011;4949;48.482;9.206;2023-02-02T00:58:52;4.07;;;2.50;;
9819;SDS011;4949;48.482;9.206;2023-02-02T01:03:55;6.20;;;2.43;;
9819;SDS011;4949;48.482;9.206;2023-02-02T01:08:56;4.10;;;2.53;;
9819;SDS011;4949;48.482;9.206;2023-02-02T01:13:57;5.47;;;2.13;;
9819;SDS011;4949;48.482;9.206;2023-02-02T01:18:57;4.47;;;2.67;;
9819;SDS011;4949;48.482;9.206;2023-02-02T01:24:01;4.47;;;2.47;;
9819;SDS011;4949;48.482;9.206;2023-02-02T01:29:02;5.30;;;2.67;;
9819;SDS011;4949;48.482;9.206;2023-02-02T01:34:02;2.43;;;2.20;;
9819;SDS011;4949;48.482;9.206;2023-02-02T01:39:03;2.70;;;1.90;;
9819;SDS011;4949;48.482;9.206;2023-02-02T01:44:04;7.60;;;2.77;;
9819;SDS011;4949;48.482;9.206;2023-02-02T01:49:44;2.73;;;2.43;;
9819;SDS011;4949;48.482;9.206;2023-02-02T01:54:47;4.03;;;2.63;;
9819;SDS011;4949;48.482;9.206;2023-02-02T02:00:04;6.03;;;2.50;;
9819;SDS011;4949;48.482;9.206;2023-02-02T02:05:13;10.07;;;2.80;;
9819;SDS011;4949;48.482;9.206;2023-02-02T02:10:20;4.00;;;2.30;;
9819;SDS011;4949;48.482;9.206;2023-02-02T02:15:21;6.47;;;2.63;;
9819;SDS011;4949;48.482;9.206;2023-02-02T02:42:47;3.20;;;2.93;;
9819;SDS011;4949;48.482;9.206;2023-02-02T02:48:03;3.93;;;2.50;;
9819;SDS011;4949;48.482;9.206;2023-02-02T02:53:05;5.77;;;3.00;;
9819;SDS011;4949;48.482;9.206;2023-02-02T02:58:17;7.73;;;4.23;;
9819;SDS011;4949;48.482;9.206;2023-02-02T03:14:21;4.33;;;2.30;;
9819;SDS011;4949;48.482;9.206;2023-02-02T03:19:22;3.30;;;2.77;;
9819;SDS011;4949;48.482;9.206;2023-02-02T03:24:22;4.30;;;2.40;;
9819;SDS011;4949;48.482;9.206;2023-02-02T03:29:23;3.83;;;2.73;;
9819;SDS011;4949;48.482;9.206;2023-02-02T03:34:27;2.60;;;2.40;;
9819;SDS011;4949;48.482;9.206;2023-02-02T03:39:27;3.83;;;2.73;;
9819;SDS011;4949;48.482;9.206;2023-02-02T03:44:29;2.47;;;2.23;;
9819;SDS011;4949;48.482;9.206;2023-02-02T03:49:30;4.40;;;2.10;;
9819;SDS011;4949;48.482;9.206;2023-02-02T03:54:33;5.40;;;2.30;;
9819;SDS011;4949;48.482;9.206;2023-02-02T03:59:37;3.30;;;2.53;;
9819;SDS011;4949;48.482;9.206;2023-02-02T04:04:38;3.00;;;2.17;;
9819;SDS011;4949;48.482;9.206;2023-02-02T04:09:43;4.53;;;2.80;;
9819;SDS011;4949;48.482;9.206;2023-02-02T04:14:44;7.50;;;2.30;;
9819;SDS011;4949;48.482;9.206;2023-02-02T04:19:47;4.17;;;1.97;;
9819;SDS011;4949;48.482;9.206;2023-02-02T04:24:48;2.60;;;2.07;;
9819;SDS011;4949;48.482;9.206;2023-02-02T04:29:51;4.03;;;2.20;;
9819;SDS011;4949;48.482;9.206;2023-02-02T04:34:52;4.80;;;3.10;;
9819;SDS011;4949;48.482;9.206;2023-02-02T04:39:55;4.40;;;2.23;;
9819;SDS011;4949;48.482;9.206;2023-02-02T04:44:56;3.93;;;2.40;;
9819;SDS011;4949;48.482;9.206;2023-02-02T04:49:57;3.87;;;2.47;;
9819;SDS011;4949;48.482;9.206;2023-02-02T04:54:57;2.07;;;1.70;;
9819;SDS011;4949;48.482;9.206;2023-02-02T04:59:58;4.60;;;1.93;;
9819;SDS011;4949;48.482;9.206;2023-02-02T05:05:05;3.83;;;3.00;;
9819;SDS011;4949;48.482;9.206;2023-02-02T05:10:11;3.23;;;1.80;;
9819;SDS011;4949;48.482;9.206;2023-02-02T05:15:16;3.20;;;2.20;;
9819;SDS011;4949;48.482;9.206;2023-02-02T05:20:17;2.90;;;1.87;;
9819;SDS011;4949;48.482;9.206;2023-02-02T05:25:18;2.90;;;2.17;;
9819;SDS011;4949;48.482;9.206;2023-02-02T05:30:19;6.13;;;2.37;;
9819;SDS011;4949;48.482;9.206;2023-02-02T05:35:22;2.47;;;2.10;;
9819;SDS011;4949;48.482;9.206;2023-02-02T05:40:23;5.20;;;2.27;;
9819;SDS011;4949;48.482;9.206;2023-02-02T05:45:26;4.10;;;2.47;;
9819;SDS011;4949;48.482;9.206;2023-02-02T05:50:27;2.73;;;2.53;;
9819;SDS011;4949;48.482;9.206;2023-02-02T05:55:28;3.80;;;2.60;;
9819;SDS011;4949;48.482;9.206;2023-02-02T06:00:29;2.87;;;2.17;;
9819;SDS011;4949;48.482;9.206;2023-02-02T06:05:29;2.30;;;2.10;;
9819;SDS011;4949;48.482;9.206;2023-02-02T06:10:30;4.80;;;2.83;;
9819;SDS011;4949;48.482;9.206;2023-02-02T06:15:31;5.00;;;2.50;;
9819;SDS011;4949;48.482;9.206;2023-02-02T06:20:32;3.50;;;3.17;;
9819;SDS011;4949;48.482;9.206;2023-02-02T06:25:33;3.60;;;2.50;;
9819;SDS011;4949;48.482;9.206;2023-02-02T06:30:36;6.77;;;2.50;;
9819;SDS011;4949;48.482;9.206;2023-02-02T06:35:36;4.43;;;2.37;;
9819;SDS011;4949;48.482;9.206;2023-02-02T06:40:37;3.40;;;2.83;;
9819;SDS011;4949;48.482;9.206;2023-02-02T06:45:38;4.10;;;2.40;;
9819;SDS011;4949;48.482;9.206;2023-02-02T06:50:41;2.87;;;2.50;;
9819;SDS011;4949;48.482;9.206;2023-02-02T06:55:42;7.70;;;2.83;;
9819;SDS011;4949;48.482;9.206;2023-02-02T07:00:46;5.50;;;2.67;;
9819;SDS011;4949;48.482;9.206;2023-02-02T07:05:48;3.13;;;2.30;;
9819;SDS011;4949;48.482;9.206;2023-02-02T07:10:49;4.00;;;2.30;;
9819;SDS011;4949;48.482;9.206;2023-02-02T07:15:54;3.40;;;2.20;;
9819;SDS011;4949;48.482;9.206;2023-02-02T07:20:59;2.80;;;2.20;;
9819;SDS011;4949;48.482;9.206;2023-02-02T07:26:06;6.20;;;3.07;;
9819;SDS011;4949;48.482;9.206;2023-02-02T07:31:12;2.77;;;2.50;;
9819;SDS011;4949;48.482;9.206;2023-02-02T07:36:26;2.80;;;2.17;;
9819;SDS011;4949;48.482;9.206;2023-02-02T07:41:26;3.57;;;2.33;;
9819;SDS011;4949;48.482;9.206;2023-02-02T07:46:27;7.10;;;3.00;;
9819;SDS011;4949;48.482;9.206;2023-02-02T07:51:31;5.03;;;2.37;;
9819;SDS011;4949;48.482;9.206;2023-02-02T07:56:37;2.50;;;2.10;;
9819;SDS011;4949;48.482;9.206;2023-02-02T08:01:40;4.10;;;2.50;;
9819;SDS011;4949;48.482;9.206;2023-02-02T08:06:43;2.63;;;2.43;;
9819;SDS011;4949;48.482;9.206;2023-02-02T08:11:44;4.33;;;2.30;;
9819;SDS011;4949;48.482;9.206;2023-02-02T08:16:44;3.00;;;2.10;;
9819;SDS011;4949;48.482;9.206;2023-02-02T08:21:45;6.47;;;2.60;;
9819;SDS011;4949;48.482;9.206;2023-02-02T08:26:48;4.80;;;2.50;;
9819;SDS011;4949;48.482;9.206;2023-02-02T08:31:52;3.80;;;2.37;;
9819;SDS011;4949;48.482;9.206;2023-02-02T08:36:53;3.70;;;2.60;;
9819;SDS011;4949;48.482;9.206;2023-02-02T08:41:54;2.80;;;2.30;;
9819;SDS011;4949;48.482;9.206;2023-02-02T08:46:58;2.70;;;2.33;;
9819;SDS011;4949;48.482;9.206;2023-02-02T08:51:58;3.17;;;2.03;;
9819;SDS011;4949;48.482;9.206;2023-02-02T08:56:59;2.50;;;2.33;;
9819;SDS011;4949;48.482;9.206;2023-02-02T09:02:00;3.17;;;2.30;;
9819;SDS011;4949;48.482;9.206;2023-02-02T09:07:03;5.20;;;2.43;;
9819;SDS011;4949;48.482;9.206;2023-02-02T09:12:04;3.87;;;2.33;;
9819;SDS011;4949;48.482;9.206;2023-02-02T09:17:04;3.07;;;2.17;;
9819;SDS011;4949;48.482;9.206;2023-02-02T09:22:07;5.43;;;2.60;;
9819;SDS011;4949;48.482;9.206;2023-02-02T09:27:11;5.23;;;2.30;;
9819;SDS011;4949;48.482;9.206;2023-02-02T09:32:12;4.20;;;2.67;;
9819;SDS011;4949;48.482;9.206;2023-02-02T09:37:13;3.73;;;2.50;;
9819;SDS011;4949;48.482;9.206;2023-02-02T09:47:52;2.93;;;2.73;;
9819;SDS011;4949;48.482;9.206;2023-02-02T09:53:05;6.00;;;2.87;;
9819;SDS011;4949;48.482;9.206;2023-02-02T10:03:38;4.43;;;2.60;;
9819;SDS011;4949;48.482;9.206;2023-02-02T10:08:47;3.33;;;2.63;;
9819;SDS011;4949;48.482;9.206;2023-02-02T10:13:55;7.67;;;3.03;;
9819;SDS011;4949;48.482;9.206;2023-02-02T10:19:13;4.30;;;3.43;;
9819;SDS011;4949;48.482;9.206;2023-02-02T10:24:16;3.23;;;2.80;;
9819;SDS011;4949;48.482;9.206;2023-02-02T10:29:38;5.57;;;2.43;;
9819;SDS011;4949;48.482;9.206;2023-02-02T10:46:20;5.77;;;2.67;;
9819;SDS011;4949;48.482;9.206;2023-02-02T10:51:27;7.40;;;3.53;;
9819;SDS011;4949;48.482;9.206;2023-02-02T10:56:33;5.63;;;2.80;;
9819;SDS011;4949;48.482;9.206;2023-02-02T11:01:39;4.90;;;3.00;;
9819;SDS011;4949;48.482;9.206;2023-02-02T11:06:40;4.40;;;2.73;;
9819;SDS011;4949;48.482;9.206;2023-02-02T11:17:23;3.57;;;2.70;;
9819;SDS011;4949;48.482;9.206;2023-02-02T11:27:37;3.50;;;2.73;;
9819;SDS011;4949;48.482;9.206;2023-02-02T11:32:40;5.47;;;3.53;;
9819;SDS011;4949;48.482;9.206;2023-02-02T11:37:57;3.00;;;2.40;;
9819;SDS011;4949;48.482;9.206;2023-02-02T11:59:36;5.00;;;2.67;;
9819;SDS011;4949;48.482;9.206;2023-02-02T12:04:39;2.80;;;2.53;;
9819;SDS011;4949;48.482;9.206;2023-02-02T12:09:40;3.77;;;2.87;;
9819;SDS011;4949;48.482;9.206;2023-02-02T12:20:05;4.97;;;3.23;;
9819;SDS011;4949;48.482;9.206;2023-02-02T12:52:29;3.67;;;2.60;;
9819;SDS011;4949;48.482;9.206;2023-02-02T12:58:05;5.70;;;3.20;;
9819;SDS011;4949;48.482;9.206;2023-02-02T13:03:20;5.70;;;2.80;;
9819;SDS011;4949;48.482;9.206;2023-02-02T13:08:51;5.00;;;2.37;;
9819;SDS011;4949;48.482;9.206;2023-02-02T13:14:11;3.47;;;2.37;;
9819;SDS011;4949;48.482;9.206;2023-02-02T13:19:37;2.50;;;2.30;;
9819;SDS011;4949;48.482;9.206;2023-02-02T13:24:44;4.53;;;2.57;;
9819;SDS011;4949;48.482;9.206;2023-02-02T13:29:53;4.70;;;2.87;;
9819;SDS011;4949;48.482;9.206;2023-02-02T13:40:29;3.00;;;2.13;;
9819;SDS011;4949;48.482;9.206;2023-02-02T14:02:25;4.13;;;2.00;;
9819;SDS011;4949;48.482;9.206;2023-02-02T14:12:38;2.50;;;2.30;;
9819;SDS011;4949;48.482;9.206;2023-02-02T14:22:43;3.80;;;1.97;;
9819;SDS011;4949;48.482;9.206;2023-02-02T14:27:54;4.03;;;2.03;;
9819;SDS011;4949;48.482;9.206;2023-02-02T14:39:04;2.20;;;2.00;;
9819;SDS011;4949;48.482;9.206;2023-02-02T14:44:18;2.60;;;1.80;;
9819;SDS011;4949;48.482;9.206;2023-02-02T14:49:22;2.93;;;2.30;;
9819;SDS011;4949;48.482;9.206;2023-02-02T14:54:31;4.33;;;2.53;;
9819;SDS011;4949;48.482;9.206;2023-02-02T14:59:37;4.30;;;2.87;;
9819;SDS011;4949;48.482;9.206;2023-02-02T15:04:41;5.23;;;2.10;;
9819;SDS011;4949;48.482;9.206;2023-02-02T15:09:42;3.13;;;2.37;;
9819;SDS011;4949;48.482;9.206;2023-02-02T15:20:12;6.60;;;2.50;;
9819;SDS011;4949;48.482;9.206;2023-02-02T15:30:53;4.97;;;2.60;;
9819;SDS011;4949;48.482;9.206;2023-02-02T15:36:05;3.57;;;3.27;;
9819;SDS011;4949;48.482;9.206;2023-02-02T15:41:26;3.40;;;2.60;;
9819;SDS011;4949;48.482;9.206;2023-02-02T15:46:31;3.13;;;2.80;;
9819;SDS011;4949;48.482;9.206;2023-02-02T15:51:34;4.93;;;2.43;;
9819;SDS011;4949;48.482;9.206;2023-02-02T15:56:36;4.67;;;3.03;;
9819;SDS011;4949;48.482;9.206;2023-02-02T16:01:43;3.40;;;2.80;;
9819;SDS011;4949;48.482;9.206;2023-02-02T16:06:53;3.57;;;2.57;;
9819;SDS011;4949;48.482;9.206;2023-02-02T16:11:55;4.80;;;2.67;;
9819;SDS011;4949;48.482;9.206;2023-02-02T16:17:08;6.63;;;2.80;;
9819;SDS011;4949;48.482;9.206;2023-02-02T16:22:20;3.00;;;2.53;;
9819;SDS011;4949;48.482;9.206;2023-02-02T16:27:24;3.70;;;2.37;;
9819;SDS011;4949;48.482;9.206;2023-02-02T16:32:30;3.70;;;2.70;;
9819;SDS011;4949;48.482;9.206;2023-02-02T16:37:37;4.33;;;3.17;;
9819;SDS011;4949;48.482;9.206;2023-02-02T16:42:38;4.80;;;3.10;;
9819;SDS011;4949;48.482;9.206;2023-02-02T16:47:39;4.10;;;2.40;;
9819;SDS011;4949;48.482;9.206;2023-02-02T16:57:55;3.70;;;3.23;;
9819;SDS011;4949;48.482;9.206;2023-02-02T17:03:03;5.80;;;3.73;;
9819;SDS011;4949;48.482;9.206;2023-02-02T17:08:07;3.37;;;3.00;;
9819;SDS011;4949;48.482;9.206;2023-02-02T17:18:31;4.63;;;2.83;;
9819;SDS011;4949;48.482;9.206;2023-02-02T17:23:34;6.07;;;3.23;;
9819;SDS011;4949;48.482;9.206;2023-02-02T17:28:36;4.07;;;3.20;;
9819;SDS011;4949;48.482;9.206;2023-02-02T17:33:40;5.60;;;3.50;;
9819;SDS011;4949;48.482;9.206;2023-02-02T17:38:44;4.03;;;3.20;;
9819;SDS011;4949;48.482;9.206;2023-02-02T17:43:44;4.80;;;3.37;;
9819;SDS011;4949;48.482;9.206;2023-02-02T17:48:47;6.97;;;3.83;;
9819;SDS011;4949;48.482;9.206;2023-02-02T17:53:48;6.63;;;3.70;;
9819;SDS011;4949;48.482;9.206;2023-02-02T17:58:49;4.47;;;3.10;;
9819;SDS011;4949;48.482;9.206;2023-02-02T18:03:52;3.67;;;3.10;;
9819;SDS011;4949;48.482;9.206;2023-02-02T18:08:54;5.13;;;3.13;;
9819;SDS011;4949;48.482;9.206;2023-02-02T18:13:57;5.63;;;3.17;;
9819;SDS011;4949;48.482;9.206;2023-02-02T18:18:58;3.87;;;2.73;;
9819;SDS011;4949;48.482;9.206;2023-02-02T18:24:03;4.30;;;2.93;;
9819;SDS011;4949;48.482;9.206;2023-02-02T18:29:04;6.37;;;3.30;;
9819;SDS011;4949;48.482;9.206;2023-02-02T18:34:05;5.00;;;3.57;;
9819;SDS011;4949;48.482;9.206;2023-02-02T18:39:06;7.23;;;3.27;;
9819;SDS011;4949;48.482;9.206;2023-02-02T18:44:08;3.27;;;3.07;;
9819;SDS011;4949;48.482;9.206;2023-02-02T18:49:09;4.17;;;3.40;;
9819;SDS011;4949;48.482;9.206;2023-02-02T18:54:13;5.83;;;3.80;;
9819;SDS011;4949;48.482;9.206;2023-02-02T18:59:14;5.30;;;3.40;;
9819;SDS011;4949;48.482;9.206;2023-02-02T19:04:15;4.13;;;3.20;;
9819;SDS011;4949;48.482;9.206;2023-02-02T19:09:16;3.97;;;3.13;;
9819;SDS011;4949;48.482;9.206;2023-02-02T19:14:22;4.00;;;3.03;;
9819;SDS011;4949;48.482;9.206;2023-02-02T19:19:35;4.47;;;3.40;;
9819;SDS011;4949;48.482;9.206;2023-02-02T19:24:37;5.37;;;3.50;;
9819;SDS011;4949;48.482;9.206;2023-02-02T19:29:39;4.50;;;3.70;;
9819;SDS011;4949;48.482;9.206;2023-02-02T19:34:40;6.03;;;3.50;;
9819;SDS011;4949;48.482;9.206;2023-02-02T19:39:40;6.23;;;4.00;;
9819;SDS011;4949;48.482;9.206;2023-02-02T19:44:43;6.27;;;3.17;;
9819;SDS011;4949;48.482;9.206;2023-02-02T19:49:43;5.33;;;2.87;;
9819;SDS011;4949;48.482;9.206;2023-02-02T19:54:46;3.60;;;2.70;;
9819;SDS011;4949;48.482;9.206;2023-02-02T19:59:49;4.70;;;2.80;;
9819;SDS011;4949;48.482;9.206;2023-02-02T20:10:20;3.03;;;2.73;;
9819;SDS011;4949;48.482;9.206;2023-02-02T20:15:45;4.00;;;2.87;;
9819;SDS011;4949;48.482;9.206;2023-02-02T20:20:50;3.27;;;2.70;;
9819;SDS011;4949;48.482;9.206;2023-02-02T20:25:53;3.43;;;2.70;;
9819;SDS011;4949;48.482;9.206;2023-02-02T20:30:54;3.23;;;3.00;;
9819;SDS011;4949;48.482;9.206;2023-02-02T20:35:55;2.97;;;2.70;;
9819;SDS011;4949;48.482;9.206;2023-02-02T20:40:56;4.93;;;2.50;;
9819;SDS011;4949;48.482;9.206;2023-02-02T20:45:59;5.27;;;2.70;;
9819;SDS011;4949;48.482;9.206;2023-02-02T20:51:03;3.20;;;2.50;;
9819;SDS011;4949;48.482;9.206;2023-02-02T20:56:04;2.50;;;1.97;;
9819;SDS011;4949;48.482;9.206;2023-02-02T21:01:05;2.10;;;1.90;;
9819;SDS011;4949;48.482;9.206;2023-02-02T21:06:07;2.30;;;2.10;;
9819;SDS011;4949;48.482;9.206;2023-02-02T21:11:08;2.20;;;1.93;;
9819;SDS011;4949;48.482;9.206;2023-02-02T21:16:11;4.97;;;2.20;;
9819;SDS011;4949;48.482;9.206;2023-02-02T21:21:14;3.40;;;2.07;;
9819;SDS011;4949;48.482;9.206;2023-02-02T21:26:18;2.30;;;2.10;;
9819;SDS011;4949;48.482;9.206;2023-02-02T21:31:21;1.77;;;1.67;;
9819;SDS011;4949;48.482;9.206;2023-02-02T21:36:33;2.00;;;1.90;;
9819;SDS011;4949;48.482;9.206;2023-02-02T21:41:44;2.90;;;2.70;;
9819;SDS011;4949;48.482;9.206;2023-02-02T21:46:50;2.13;;;1.93;;
9819;SDS011;4949;48.482;9.206;2023-02-02T21:51:57;1.97;;;1.87;;
9819;SDS011;4949;48.482;9.206;2023-02-02T21:56:59;2.10;;;2.00;;
9819;SDS011;4949;48.482;9.206;2023-02-02T22:07:38;1.90;;;1.80;;
9819;SDS011;4949;48.482;9.206;2023-02-02T22:12:44;2.50;;;2.00;;
9819;SDS011;4949;48.482;9.206;2023-02-02T22:17:45;3.93;;;2.00;;
9819;SDS011;4949;48.482;9.206;2023-02-02T22:22:49;2.10;;;1.80;;
9819;SDS011;4949;48.482;9.206;2023-02-02T22:27:56;2.40;;;2.20;;
9819;SDS011;4949;48.482;9.206;2023-02-02T22:33:01;2.33;;;2.03;;
9819;SDS011;4949;48.482;9.206;2023-02-02T22:38:04;2.27;;;1.80;;
9819;SDS011;4949;48.482;9.206;2023-02-02T22:43:08;2.53;;;2.33;;
9819;SDS011;4949;48.482;9.206;2023-02-02T22:48:12;3.03;;;2.00;;
9819;SDS011;4949;48.482;9.206;2023-02-02T22:53:16;1.97;;;1.87;;
9819;SDS011;4949;48.482;9.206;2023-02-02T22:58:17;2.47;;;2.27;;
9819;SDS011;4949;48.482;9.206;2023-02-02T23:03:18;2.17;;;2.07;;
9819;SDS011;4949;48.482;9.206;2023-02-02T23:08:18;2.33;;;2.13;;
9819;SDS011;4949;48.482;9.206;2023-02-02T23:13:19;3.70;;;2.10;;
9819;SDS011;4949;48.482;9.206;2023-02-02T23:18:22;2.07;;;1.90;;
9819;SDS011;4949;48.482;9.206;2023-02-02T23:23:23;2.20;;;2.10;;
9819;SDS011;4949;48.482;9.206;2023-02-02T23:28:24;3.43;;;2.33;;
9819;SDS011;4949;48.482;9.206;2023-02-02T23:33:24;1.90;;;1.80;;
9819;SDS011;4949;48.482;9.206;2023-02-02T23:38:27;1.63;;;1.53;;
9819;SDS011;4949;48.482;9.206;2023-02-02T23:43:28;2.47;;;2.07;;
9819;SDS011;4949;48.482;9.206;2023-02-02T23:48:29;2.00;;;1.83;;
9819;SDS011;4949;48.482;9.206;2023-02-02T23:53:32;2.27;;;1.97;;
9819;SDS011;4949;48.482;9.206;2023-02-02T23:58:38;1.77;;;1.67;;
